createdAt,value
2022-10-13T00:02:26.476Z,6.38
2022-10-13T00:05:30.871Z,6.93
2022-10-13T00:08:34.945Z,6.25
2022-10-13T00:11:38.264Z,7.10
2022-10-13T00:14:41.678Z,6.00
2022-10-13T00:17:45.111Z,5.30
2022-10-13T00:20:50.042Z,5.68
2022-10-13T00:23:58.545Z,6.00
2022-10-13T00:27:01.811Z,6.20
2022-10-13T00:30:05.741Z,5.70
2022-10-13T00:33:10.201Z,5.05
2022-10-13T00:36:13.521Z,5.18
2022-10-13T00:39:16.811Z,5.18
2022-10-13T00:42:20.551Z,5.83
2022-10-13T00:45:29.667Z,5.50
2022-10-13T00:48:32.965Z,5.53
2022-10-13T00:51:40.717Z,5.80
2022-10-13T00:54:44.908Z,5.97
2022-10-13T00:57:54.811Z,5.57
2022-10-13T01:01:06.869Z,5.50
2022-10-13T01:04:11.037Z,5.47
2022-10-13T01:07:16.790Z,6.20
2022-10-13T01:10:28.003Z,6.03
2022-10-13T01:13:43.417Z,6.33
2022-10-13T01:17:07.638Z,5.60
2022-10-13T01:20:48.077Z,5.80
2022-10-13T01:24:23.221Z,6.03
2022-10-13T01:27:42.318Z,5.30
2022-10-13T01:30:56.917Z,5.87
2022-10-13T01:34:02.813Z,5.73
2022-10-13T01:37:16.236Z,6.07
2022-10-13T01:40:27.540Z,6.22
2022-10-13T01:43:42.996Z,5.93
2022-10-13T01:46:48.650Z,6.40
2022-10-13T01:49:54.185Z,6.70
2022-10-13T01:52:59.726Z,6.40
2022-10-13T01:56:03.115Z,6.25
2022-10-13T01:59:10.456Z,5.90
2022-10-13T02:02:24.509Z,6.13
2022-10-13T02:06:05.056Z,6.00
2022-10-13T02:09:26.946Z,6.18
2022-10-13T02:13:00.718Z,6.13
2022-10-13T02:16:04.199Z,6.25
2022-10-13T02:19:12.890Z,6.50
2022-10-13T02:22:17.845Z,6.10
2022-10-13T02:25:21.384Z,6.38
2022-10-13T02:28:27.132Z,5.97
2022-10-13T02:31:30.427Z,5.90
2022-10-13T02:34:33.805Z,5.87
2022-10-13T02:37:37.082Z,5.87
2022-10-13T02:40:40.371Z,5.82
2022-10-13T02:43:43.655Z,6.15
2022-10-13T02:46:47.715Z,6.38
2022-10-13T02:49:50.946Z,5.93
2022-10-13T02:52:54.280Z,6.60
2022-10-13T02:55:57.486Z,5.93
2022-10-13T02:59:02.315Z,6.13
2022-10-13T03:02:05.650Z,6.43
2022-10-13T03:05:10.279Z,5.83
2022-10-13T03:08:13.738Z,5.87
2022-10-13T03:11:19.720Z,5.90
2022-10-13T03:14:22.979Z,6.78
2022-10-13T03:17:27.092Z,5.82
2022-10-13T03:20:30.935Z,5.63
2022-10-13T03:23:34.694Z,5.63
2022-10-13T03:26:37.978Z,6.63
2022-10-13T03:29:41.359Z,5.82
2022-10-13T03:32:44.647Z,6.20
2022-10-13T03:35:47.985Z,6.10
2022-10-13T03:38:51.262Z,6.20
2022-10-13T03:41:54.577Z,6.18
2022-10-13T03:44:57.856Z,6.40
2022-10-13T03:48:01.203Z,6.13
2022-10-13T03:51:09.274Z,6.00
2022-10-13T03:54:13.886Z,6.50
2022-10-13T03:57:17.170Z,6.80
2022-10-13T04:00:20.490Z,6.47
2022-10-13T04:03:24.530Z,6.50
2022-10-13T04:06:28.511Z,6.40
2022-10-13T04:09:31.794Z,5.93
2022-10-13T04:12:34.977Z,6.38
2022-10-13T04:15:40.013Z,6.22
2022-10-13T04:18:44.836Z,5.95
2022-10-13T04:21:49.138Z,6.63
2022-10-13T04:24:52.489Z,6.40
2022-10-13T04:27:55.702Z,6.32
2022-10-13T04:31:00.065Z,6.40
2022-10-13T04:34:04.991Z,6.53
2022-10-13T04:37:08.267Z,6.83
2022-10-13T04:40:11.789Z,5.97
2022-10-13T04:43:15.934Z,6.63
2022-10-13T04:46:24.789Z,6.00
2022-10-13T04:49:28.168Z,6.45
2022-10-13T04:52:31.549Z,5.97
2022-10-13T04:55:37.213Z,5.90
2022-10-13T04:58:41.763Z,5.97
2022-10-13T05:01:45.022Z,5.95
2022-10-13T05:04:49.777Z,6.30
2022-10-13T05:07:53.000Z,5.67
2022-10-13T05:11:01.361Z,6.10
2022-10-13T05:14:05.019Z,5.63
2022-10-13T05:17:10.180Z,5.80
2022-10-13T05:20:13.917Z,6.05
2022-10-13T05:23:17.329Z,6.53
2022-10-13T05:26:20.822Z,6.90
2022-10-13T05:29:24.066Z,7.65
2022-10-13T05:32:27.420Z,6.43
2022-10-13T05:35:30.976Z,7.28
2022-10-13T05:38:34.298Z,6.70
2022-10-13T05:41:39.250Z,6.60
2022-10-13T05:44:49.759Z,6.30
2022-10-13T05:47:53.611Z,6.18
2022-10-13T05:51:00.265Z,6.40
2022-10-13T05:54:16.212Z,6.03
2022-10-13T05:57:31.288Z,6.63
2022-10-13T06:00:34.693Z,6.13
2022-10-13T06:03:40.157Z,6.72
2022-10-13T06:06:43.663Z,11.05
2022-10-13T06:14:55.347Z,7.00
2022-10-13T06:17:58.737Z,6.22
2022-10-13T06:25:23.206Z,7.13
2022-10-13T06:28:28.432Z,7.37
2022-10-13T06:31:32.039Z,7.00
2022-10-13T06:34:37.455Z,6.55
2022-10-13T06:37:40.980Z,6.88
2022-10-13T06:40:46.967Z,6.38
2022-10-13T06:43:50.770Z,6.87
2022-10-13T06:46:54.855Z,7.00
2022-10-13T06:49:58.924Z,6.38
2022-10-13T06:53:02.565Z,6.65
2022-10-13T06:56:07.336Z,6.35
2022-10-13T06:59:12.064Z,6.30
2022-10-13T07:02:16.049Z,6.77
2022-10-13T07:05:19.642Z,6.65
2022-10-13T07:08:23.221Z,7.30
2022-10-13T07:11:29.097Z,6.72
2022-10-13T07:14:33.164Z,7.17
2022-10-13T07:17:37.234Z,7.10
2022-10-13T07:20:41.206Z,7.57
2022-10-13T07:23:45.286Z,7.50
2022-10-13T07:26:49.023Z,7.80
2022-10-13T07:29:55.358Z,8.17
2022-10-13T07:33:00.684Z,8.10
2022-10-13T07:36:05.269Z,8.45
2022-10-13T07:39:10.787Z,7.15
2022-10-13T07:42:15.115Z,6.72
2022-10-13T07:45:18.596Z,6.37
2022-10-13T07:51:34.214Z,6.50
2022-10-13T07:54:37.763Z,6.18
2022-10-13T07:57:41.551Z,6.60
2022-10-13T08:00:45.751Z,6.23
2022-10-13T08:03:50.898Z,6.00
2022-10-13T08:06:57.658Z,5.93
2022-10-13T08:10:01.372Z,6.40
2022-10-13T08:13:05.002Z,6.00
2022-10-13T08:16:08.609Z,6.20
2022-10-13T08:19:20.396Z,6.03
2022-10-13T08:22:28.078Z,5.88
2022-10-13T08:25:39.156Z,6.93
2022-10-13T08:28:57.536Z,6.30
2022-10-13T08:32:07.687Z,6.50
2022-10-13T08:35:11.914Z,6.00
2022-10-13T08:38:16.553Z,6.10
2022-10-13T08:41:53.545Z,5.90
2022-10-13T08:48:33.190Z,5.90
2022-10-13T08:51:39.755Z,6.77
2022-10-13T08:54:44.329Z,5.40
2022-10-13T08:57:48.226Z,6.00
2022-10-13T09:01:10.731Z,6.10
2022-10-13T09:04:36.555Z,5.63
2022-10-13T09:07:41.293Z,5.80
2022-10-13T09:10:53.291Z,5.97
2022-10-13T09:14:02.019Z,5.88
2022-10-13T09:17:26.579Z,6.45
2022-10-13T09:31:24.150Z,6.20
2022-10-13T09:34:28.851Z,5.80
2022-10-13T09:37:35.560Z,5.88
2022-10-13T09:40:41.185Z,7.03
2022-10-13T09:44:00.142Z,6.00
2022-10-13T09:47:05.029Z,5.43
2022-10-13T09:50:18.945Z,6.10
2022-10-13T09:53:47.108Z,5.85
2022-10-13T09:57:11.422Z,6.00
2022-10-13T10:00:24.984Z,5.50
2022-10-13T10:03:35.815Z,5.53
2022-10-13T10:06:40.341Z,5.63
2022-10-13T10:09:51.556Z,5.05
2022-10-13T10:12:54.998Z,4.50
2022-10-13T10:16:07.249Z,5.00
2022-10-13T10:19:26.435Z,5.53
2022-10-13T10:22:52.945Z,4.80
2022-10-13T10:26:10.669Z,5.30
2022-10-13T10:29:28.637Z,5.37
2022-10-13T10:32:51.060Z,5.03
2022-10-13T10:36:09.068Z,4.70
2022-10-13T10:39:27.616Z,4.88
2022-10-13T10:42:51.168Z,5.30
2022-10-13T10:45:59.254Z,5.17
2022-10-13T10:49:16.547Z,5.33
2022-10-13T10:52:27.859Z,4.60
2022-10-13T10:55:52.915Z,4.80
2022-10-13T10:59:01.725Z,4.82
2022-10-13T11:02:07.848Z,4.83
2022-10-13T11:05:11.783Z,5.30
2022-10-13T11:08:49.151Z,4.78
2022-10-13T11:11:54.763Z,5.10
2022-10-13T11:15:11.608Z,5.40
2022-10-13T11:18:52.241Z,5.77
2022-10-13T11:21:59.939Z,5.57
2022-10-13T11:25:36.927Z,5.50
2022-10-13T11:28:43.645Z,5.65
2022-10-13T11:31:54.420Z,5.40
2022-10-13T11:35:06.877Z,5.57
2022-10-13T11:38:29.783Z,5.47
2022-10-13T11:41:47.436Z,6.15
2022-10-13T11:44:59.482Z,5.65
2022-10-13T11:48:33.768Z,6.00
2022-10-13T11:51:50.662Z,5.63
2022-10-13T11:55:06.070Z,5.50
2022-10-13T11:58:17.510Z,5.90
2022-10-13T12:01:23.935Z,6.13
2022-10-13T12:04:30.247Z,5.57
2022-10-13T12:07:36.892Z,5.50
2022-10-13T12:10:40.546Z,5.70
2022-10-13T12:13:47.668Z,5.07
2022-10-13T12:20:23.553Z,5.80
2022-10-13T12:23:28.199Z,5.73
2022-10-13T12:26:31.786Z,5.43
2022-10-13T12:29:37.427Z,5.68
2022-10-13T12:32:50.611Z,6.05
2022-10-13T12:35:54.376Z,6.10
2022-10-13T12:39:08.170Z,5.80
2022-10-13T12:42:14.636Z,6.10
2022-10-13T12:45:20.861Z,5.50
2022-10-13T12:48:33.187Z,5.07
2022-10-13T12:51:38.390Z,5.25
2022-10-13T12:54:49.417Z,5.60
2022-10-13T12:57:57.302Z,5.53
2022-10-13T13:01:08.523Z,5.75
2022-10-13T13:04:24.014Z,6.07
2022-10-13T13:07:34.976Z,5.47
2022-10-13T13:10:53.640Z,5.97
2022-10-13T13:14:45.162Z,5.03
2022-10-13T13:18:04.059Z,5.30
2022-10-13T13:21:18.480Z,5.00
2022-10-13T13:24:39.097Z,5.20
2022-10-13T13:27:46.259Z,5.90
2022-10-13T13:30:53.122Z,5.63
2022-10-13T13:33:57.011Z,5.68
2022-10-13T13:37:02.676Z,6.22
2022-10-13T13:40:07.607Z,6.40
2022-10-13T13:43:11.053Z,6.23
2022-10-13T13:46:23.445Z,5.67
2022-10-13T13:49:26.830Z,5.72
2022-10-13T13:52:30.157Z,6.03
2022-10-13T13:55:34.128Z,5.88
2022-10-13T13:58:37.454Z,7.00
2022-10-13T14:01:40.885Z,6.10
2022-10-13T14:04:44.515Z,6.45
2022-10-13T14:07:47.881Z,6.22
2022-10-13T14:10:51.373Z,5.82
2022-10-13T14:13:54.766Z,6.10
2022-10-13T14:17:05.329Z,6.33
2022-10-13T14:20:09.223Z,6.05
2022-10-13T14:23:14.248Z,6.22
2022-10-13T14:26:17.609Z,6.70
2022-10-13T14:29:21.116Z,6.10
2022-10-13T14:32:24.439Z,5.77
2022-10-13T14:35:27.807Z,5.70
2022-10-13T14:38:31.289Z,5.95
2022-10-13T14:41:34.725Z,5.93
2022-10-13T14:44:38.091Z,6.20
2022-10-13T14:47:41.987Z,6.30
2022-10-13T14:50:45.525Z,5.93
2022-10-13T14:53:48.882Z,5.43
2022-10-13T14:56:52.432Z,5.95
2022-10-13T15:00:00.753Z,5.77
2022-10-13T15:03:05.698Z,5.67
2022-10-13T15:06:23.726Z,5.55
2022-10-13T15:09:38.954Z,6.30
2022-10-13T15:12:52.931Z,6.03
2022-10-13T15:15:57.160Z,6.47
2022-10-13T15:19:00.691Z,6.50
2022-10-13T15:22:04.086Z,5.97
2022-10-13T15:25:10.201Z,6.75
2022-10-13T15:28:13.742Z,6.53
2022-10-13T15:31:19.012Z,7.60
2022-10-13T15:34:22.346Z,7.20
2022-10-13T15:37:25.814Z,10.00
2022-10-13T15:40:29.233Z,8.73
2022-10-13T15:43:33.166Z,11.38
2022-10-13T15:46:37.851Z,10.93
2022-10-13T15:49:45.438Z,10.17
2022-10-13T15:52:48.920Z,9.63
2022-10-13T15:55:52.504Z,9.95
2022-10-13T15:58:55.859Z,11.43
2022-10-13T16:02:00.584Z,25.70
2022-10-13T16:05:05.487Z,47.57
2022-10-13T16:08:10.706Z,55.53
2022-10-13T16:11:16.076Z,73.07
2022-10-13T16:14:19.613Z,60.30
2022-10-13T16:17:25.682Z,48.90
2022-10-13T16:20:34.387Z,58.47
2022-10-13T16:23:37.805Z,27.42
2022-10-13T16:26:41.119Z,14.75
2022-10-13T16:29:44.399Z,55.83
2022-10-13T16:32:47.773Z,67.70
2022-10-13T16:35:51.090Z,67.00
2022-10-13T16:38:55.307Z,64.72
2022-10-13T16:41:58.774Z,37.25
2022-10-13T16:45:02.135Z,43.47
2022-10-13T16:48:05.589Z,43.67
2022-10-13T16:51:12.221Z,39.00
2022-10-13T16:54:15.514Z,33.58
2022-10-13T16:57:19.179Z,35.95
2022-10-13T17:00:24.552Z,29.15
2022-10-13T17:03:27.988Z,29.13
2022-10-13T17:06:31.648Z,23.90
2022-10-13T17:09:35.570Z,26.98
2022-10-13T17:12:38.906Z,25.67
2022-10-13T17:15:52.982Z,29.42
2022-10-13T17:18:57.569Z,24.70
2022-10-13T17:22:09.233Z,29.13
2022-10-13T17:25:13.569Z,25.85
2022-10-13T17:28:17.885Z,22.98
2022-10-13T17:31:24.087Z,24.33
2022-10-13T17:34:27.579Z,24.47
2022-10-13T17:37:31.017Z,24.63
2022-10-13T17:40:35.931Z,31.10
2022-10-13T17:43:40.983Z,27.25
2022-10-13T17:46:44.317Z,29.58
2022-10-13T17:49:48.749Z,29.17
2022-10-13T17:52:52.472Z,24.40
2022-10-13T17:56:04.198Z,24.60
2022-10-13T17:59:09.802Z,25.10
2022-10-13T18:02:13.638Z,23.92
2022-10-13T18:05:17.224Z,25.73
2022-10-13T18:08:21.303Z,23.10
2022-10-13T18:11:25.344Z,27.20
2022-10-13T18:14:28.801Z,23.45
2022-10-13T18:17:32.187Z,24.08
2022-10-13T18:20:39.079Z,22.23
2022-10-13T18:23:43.242Z,20.63
2022-10-13T18:26:47.146Z,20.73
2022-10-13T18:29:50.598Z,19.65
2022-10-13T18:32:53.867Z,20.42
2022-10-13T18:35:57.345Z,20.63
2022-10-13T18:39:10.700Z,17.83
2022-10-13T18:42:15.457Z,18.70
2022-10-13T18:45:18.850Z,24.55
2022-10-13T18:48:22.255Z,27.48
2022-10-13T18:51:26.368Z,28.57
2022-10-13T18:54:30.739Z,25.40
2022-10-13T18:57:37.282Z,32.60
2022-10-13T19:00:41.634Z,29.15
2022-10-13T19:03:45.684Z,31.17
2022-10-13T19:06:49.303Z,31.00
2022-10-13T19:09:53.322Z,25.40
2022-10-13T19:12:56.891Z,27.13
2022-10-13T19:16:03.827Z,25.17
2022-10-13T19:19:10.274Z,24.40
2022-10-13T19:22:13.618Z,24.63
2022-10-13T19:25:17.171Z,23.47
2022-10-13T19:28:21.383Z,22.67
2022-10-13T19:31:26.796Z,23.10
2022-10-13T19:34:32.669Z,22.00
2022-10-13T19:37:36.946Z,22.37
2022-10-13T19:40:52.635Z,18.63
2022-10-13T19:43:55.901Z,22.52
2022-10-13T19:47:00.822Z,22.92
2022-10-13T19:50:06.126Z,23.65
2022-10-13T19:53:11.285Z,24.80
2022-10-13T19:56:24.435Z,23.37
2022-10-13T19:59:28.318Z,21.02
2022-10-13T20:02:31.914Z,19.60
2022-10-13T20:05:38.510Z,18.55
2022-10-13T20:08:41.971Z,19.70
2022-10-13T20:11:46.807Z,21.33
2022-10-13T20:14:50.366Z,19.23
2022-10-13T20:17:53.703Z,18.75
2022-10-13T20:20:56.978Z,17.90
2022-10-13T20:24:00.451Z,17.80
2022-10-13T20:27:03.815Z,28.13
2022-10-13T20:30:08.718Z,21.92
2022-10-13T20:33:12.226Z,18.42
2022-10-13T20:36:18.131Z,15.10
2022-10-13T20:39:21.535Z,15.70
2022-10-13T20:42:24.889Z,16.10
2022-10-13T20:45:28.209Z,18.40
2022-10-13T20:48:57.829Z,16.77
2022-10-13T20:51:57.205Z,16.17
2022-10-13T20:55:00.513Z,17.37
2022-10-13T20:58:04.645Z,19.83
2022-10-13T21:01:08.102Z,18.35
2022-10-13T21:04:13.019Z,21.35
2022-10-13T21:07:16.409Z,19.88
2022-10-13T21:10:19.734Z,18.33
2022-10-13T21:13:23.139Z,16.70
2022-10-13T21:16:28.458Z,16.70
2022-10-13T21:19:31.860Z,20.58
2022-10-13T21:22:35.117Z,19.13
2022-10-13T21:25:42.005Z,18.23
2022-10-13T21:28:45.480Z,19.00
2022-10-13T21:31:48.866Z,18.40
2022-10-13T21:34:54.073Z,19.73
2022-10-13T21:37:58.019Z,19.42
2022-10-13T21:41:04.540Z,17.63
2022-10-13T21:44:07.924Z,17.30
2022-10-13T21:47:11.274Z,16.05
2022-10-13T21:50:14.579Z,15.20
2022-10-13T21:53:21.278Z,16.35
2022-10-13T21:56:26.182Z,15.63
2022-10-13T21:59:29.806Z,15.90
2022-10-13T22:02:33.100Z,18.10
2022-10-13T22:05:36.354Z,18.88
2022-10-13T22:08:41.532Z,18.27
2022-10-13T22:11:54.214Z,17.73
2022-10-13T22:14:59.728Z,16.80
2022-10-13T22:18:03.446Z,18.70
2022-10-13T22:21:12.045Z,18.23
2022-10-13T22:24:18.323Z,14.90
2022-10-13T22:27:21.955Z,15.73
2022-10-13T22:30:25.627Z,15.03
2022-10-13T22:33:28.951Z,18.20
2022-10-13T22:36:32.333Z,17.55
2022-10-13T22:39:35.677Z,22.30
2022-10-13T22:42:44.662Z,24.33
2022-10-13T22:45:52.137Z,22.23
2022-10-13T22:48:56.820Z,22.33
2022-10-13T22:52:00.143Z,24.90
2022-10-13T22:55:03.524Z,23.88
2022-10-13T22:58:08.613Z,27.50
2022-10-13T23:01:14.974Z,23.43
2022-10-13T23:04:18.355Z,22.40
2022-10-13T23:07:22.468Z,19.65
2022-10-13T23:10:27.081Z,24.17
2022-10-13T23:13:30.434Z,22.50
2022-10-13T23:16:35.119Z,33.53
2022-10-13T23:19:38.501Z,35.67
2022-10-13T23:22:42.088Z,26.10
2022-10-13T23:25:45.504Z,23.95
2022-10-13T23:28:48.946Z,19.80
2022-10-13T23:31:52.387Z,19.73
2022-10-13T23:34:55.724Z,20.90
2022-10-13T23:38:01.025Z,21.83
2022-10-13T23:41:10.971Z,29.77
2022-10-13T23:44:14.988Z,28.10
2022-10-13T23:47:18.939Z,27.07
2022-10-13T23:50:23.066Z,26.13
2022-10-13T23:53:26.365Z,27.35
2022-10-13T23:56:29.831Z,24.70
2022-10-13T23:59:33.534Z,23.90
